Time,TemperatureF,DewpointF,PressureIn,WindDirection,WindDirectionDegrees,WindSpeedMPH,WindSpeedGustMPH,Humidity,HourlyPrecipIn,Conditions,Clouds,dailyrainin,SoftwareType,DateUTC
2013-12-02 00:00:00,55.8,53.5,29.91,SW,217,0.0,5.0,92,0.00,,,0.01,Wunderground v.1.15,2013-12-02 06:00:00,
2013-12-02 00:10:00,55.5,53.2,29.92,SW,217,0.0,5.0,92,0.00,,,0.01,Wunderground v.1.15,2013-12-02 06:10:00,
2013-12-02 00:20:00,55.2,53.2,29.92,SW,217,0.0,5.0,93,0.00,,,0.00,Wunderground v.1.15,2013-12-02 06:20:00,
2013-12-02 00:30:00,55.3,53.3,29.91,SW,217,0.0,5.0,93,0.00,,,0.00,Wunderground v.1.15,2013-12-02 06:30:00,
2013-12-02 00:40:00,55.2,53.2,29.90,SW,217,0.0,5.0,93,0.00,,,0.00,Wunderground v.1.15,2013-12-02 06:40:00,
2013-12-02 00:50:00,55.1,53.1,29.91,SW,217,0.0,5.0,93,0.00,,,0.00,Wunderground v.1.15,2013-12-02 06:50:00,
2013-12-02 01:00:00,54.9,53.2,29.90,SW,217,0.0,5.0,94,0.00,,,0.00,Wunderground v.1.15,2013-12-02 07:00:00,
2013-12-02 01:10:00,54.6,52.6,29.90,SW,217,0.0,5.0,93,0.00,,,0.00,Wunderground v.1.15,2013-12-02 07:10:00,
2013-12-02 01:20:00,54.2,52.5,29.89,SW,217,0.0,5.0,94,0.00,,,0.00,Wunderground v.1.15,2013-12-02 07:20:00,
2013-12-02 01:30:00,54.0,52.3,29.88,SW,217,0.0,5.0,94,0.00,,,0.00,Wunderground v.1.15,2013-12-02 07:30:00,
2013-12-02 01:40:00,53.9,52.2,29.88,SW,217,0.0,5.0,94,0.00,,,0.00,Wunderground v.1.15,2013-12-02 07:40:00,
2013-12-02 01:50:00,53.5,51.8,29.88,SW,217,0.0,5.0,94,0.00,,,0.00,Wunderground v.1.15,2013-12-02 07:50:00,
2013-12-02 02:00:00,53.2,51.5,29.88,SW,217,0.0,5.0,94,0.00,,,0.00,Wunderground v.1.15,2013-12-02 08:00:00,
2013-12-02 02:10:00,52.6,50.9,29.88,SW,217,0.0,5.0,94,0.00,,,0.00,Wunderground v.1.15,2013-12-02 08:10:00,
2013-12-02 02:20:00,52.4,50.7,29.87,SW,217,0.0,5.0,94,0.00,,,0.00,Wunderground v.1.15,2013-12-02 08:20:00,
2013-12-02 02:30:00,52.1,50.4,29.87,SW,217,0.0,5.0,94,0.00,,,0.00,Wunderground v.1.15,2013-12-02 08:30:00,
2013-12-02 02:40:00,52.0,50.6,29.87,SW,217,0.0,5.0,95,0.00,,,0.00,Wunderground v.1.15,2013-12-02 08:40:00,
2013-12-02 02:50:00,52.1,50.7,29.87,SW,217,0.0,5.0,95,0.00,,,0.00,Wunderground v.1.15,2013-12-02 08:50:00,
2013-12-02 03:00:00,52.2,50.8,29.87,SW,217,0.0,5.0,95,0.00,,,0.00,Wunderground v.1.15,2013-12-02 09:00:00,
2013-12-02 03:10:00,52.3,50.9,29.87,SW,217,0.0,5.0,95,0.00,,,0.00,Wunderground v.1.15,2013-12-02 09:10:00,
2013-12-02 03:20:00,52.2,50.5,29.86,SW,217,0.0,5.0,94,0.00,,,0.00,Wunderground v.1.15,2013-12-02 09:20:00,
2013-12-02 03:30:00,52.0,50.3,29.86,SW,217,0.0,5.0,94,0.00,,,0.00,Wunderground v.1.15,2013-12-02 09:30:00,
2013-12-02 03:40:00,51.8,50.1,29.86,SW,217,0.0,5.0,94,0.00,,,0.00,Wunderground v.1.15,2013-12-02 09:40:00,
2013-12-02 03:50:00,51.7,50.0,29.85,SW,217,0.0,5.0,94,0.00,,,0.00,Wunderground v.1.15,2013-12-02 09:50:00,
2013-12-02 04:00:00,51.6,49.6,29.85,SW,217,0.0,5.0,93,0.00,,,0.00,Wunderground v.1.15,2013-12-02 10:00:00,
2013-12-02 04:10:00,51.5,49.5,29.85,SW,224,1.0,1.0,93,0.00,,,0.00,Wunderground v.1.15,2013-12-02 10:10:00,
2013-12-02 04:20:00,51.3,49.3,29.85,SW,225,0.0,5.0,93,0.00,,,0.00,Wunderground v.1.15,2013-12-02 10:20:00,
2013-12-02 04:30:00,51.1,49.1,29.84,SW,225,0.0,5.0,93,0.00,,,0.00,Wunderground v.1.15,2013-12-02 10:30:00,
2013-12-02 04:40:00,50.8,48.8,29.83,SW,225,0.0,5.0,93,0.00,,,0.00,Wunderground v.1.15,2013-12-02 10:40:00,
2013-12-02 04:50:00,50.5,48.6,29.83,SW,225,0.0,5.0,93,0.00,,,0.00,Wunderground v.1.15,2013-12-02 10:50:00,
2013-12-02 05:00:00,50.2,48.3,29.83,SW,225,0.0,5.0,93,0.00,,,0.00,Wunderground v.1.15,2013-12-02 11:00:00,
2013-12-02 05:10:00,50.0,48.1,29.82,SW,225,0.0,5.0,93,0.00,,,0.00,Wunderground v.1.15,2013-12-02 11:10:00,
2013-12-02 05:20:00,49.9,48.0,29.82,SW,225,0.0,5.0,93,0.00,,,0.00,Wunderground v.1.15,2013-12-02 11:20:00,
2013-12-02 05:30:00,49.7,47.8,29.82,SW,225,0.0,5.0,93,0.00,,,0.00,Wunderground v.1.15,2013-12-02 11:30:00,
2013-12-02 05:40:00,49.4,47.5,29.82,SW,225,0.0,5.0,93,0.00,,,0.00,Wunderground v.1.15,2013-12-02 11:40:00,
2013-12-02 05:50:00,49.1,47.2,29.82,SW,225,0.0,5.0,93,0.00,,,0.00,Wunderground v.1.15,2013-12-02 11:50:00,
2013-12-02 06:00:00,48.9,47.0,29.83,SW,225,0.0,5.0,93,0.00,,,0.00,Wunderground v.1.15,2013-12-02 12:00:00,
2013-12-02 06:10:00,48.6,46.7,29.82,SW,225,0.0,5.0,93,0.00,,,0.00,Wunderground v.1.15,2013-12-02 12:10:00,
2013-12-02 06:20:00,48.5,46.9,29.82,SW,225,0.0,5.0,94,0.00,,,0.00,Wunderground v.1.15,2013-12-02 12:20:00,
2013-12-02 06:30:00,48.0,46.1,29.82,SW,225,0.0,5.0,93,0.00,,,0.00,Wunderground v.1.15,2013-12-02 12:30:00,
2013-12-02 06:40:00,47.3,45.1,29.83,SW,225,0.0,5.0,92,0.00,,,0.00,Wunderground v.1.15,2013-12-02 12:40:00,
2013-12-02 06:50:00,46.8,44.9,29.83,SW,225,0.0,5.0,93,0.00,,,0.00,Wunderground v.1.15,2013-12-02 12:50:00,
2013-12-02 07:00:00,47.0,45.4,29.82,SW,225,0.0,5.0,94,0.00,,,0.00,Wunderground v.1.15,2013-12-02 13:00:00,
2013-12-02 07:10:00,47.2,45.6,29.83,SW,225,0.0,5.0,94,0.00,,,0.00,Wunderground v.1.15,2013-12-02 13:10:00,
2013-12-02 07:20:00,47.1,45.5,29.83,SW,225,0.0,5.0,94,0.00,,,0.01,Wunderground v.1.15,2013-12-02 13:20:00,
2013-12-02 07:30:00,47.1,45.7,29.83,SW,225,0.0,5.0,95,0.00,,,0.01,Wunderground v.1.15,2013-12-02 13:30:00,
2013-12-02 07:40:00,47.6,46.2,29.83,SW,225,0.0,5.0,95,0.00,,,0.01,Wunderground v.1.15,2013-12-02 13:40:00,
2013-12-02 07:50:00,48.1,46.7,29.83,SW,225,0.0,5.0,95,0.00,,,0.01,Wunderground v.1.15,2013-12-02 13:50:00,
2013-12-02 08:00:00,49.0,47.6,29.83,SW,225,0.0,5.0,95,0.00,,,0.01,Wunderground v.1.15,2013-12-02 14:00:00,
2013-12-02 08:10:00,49.8,48.1,29.83,SW,225,0.0,5.0,94,0.00,,,0.01,Wunderground v.1.15,2013-12-02 14:10:00,
2013-12-02 08:20:00,50.6,48.7,29.83,SW,225,0.0,5.0,93,0.00,,,0.01,Wunderground v.1.15,2013-12-02 14:20:00,
2013-12-02 08:30:00,51.1,48.6,29.83,SW,225,0.0,5.0,91,0.00,,,0.01,Wunderground v.1.15,2013-12-02 14:30:00,
2013-12-02 08:40:00,51.7,48.9,29.83,SW,225,0.0,5.0,90,0.00,,,0.01,Wunderground v.1.15,2013-12-02 14:40:00,
2013-12-02 08:50:00,52.2,48.8,29.83,SW,227,0.0,5.0,88,0.00,,,0.01,Wunderground v.1.15,2013-12-02 14:50:00,
2013-12-02 09:00:00,52.6,48.8,29.84,SSW,209,0.0,5.0,87,0.00,,,0.01,Wunderground v.1.15,2013-12-02 15:00:00,
2013-12-02 09:10:00,53.3,49.5,29.83,SW,219,1.0,5.0,87,0.00,,,0.01,Wunderground v.1.15,2013-12-02 15:10:00,
2013-12-02 09:20:00,54.4,49.7,29.83,SW,228,2.0,2.0,84,0.00,,,0.01,Wunderground v.1.15,2013-12-02 15:20:00,
2013-12-02 09:30:00,55.8,50.1,29.83,SW,228,1.0,1.0,81,0.00,,,0.01,Wunderground v.1.15,2013-12-02 15:30:00,
2013-12-02 09:40:00,56.8,50.0,29.83,SW,233,2.0,5.0,78,0.00,,,0.01,Wunderground v.1.15,2013-12-02 15:40:00,
2013-12-02 09:50:00,58.0,50.1,29.82,WSW,244,1.0,5.0,75,0.00,,,0.01,Wunderground v.1.15,2013-12-02 15:50:00,
2013-12-02 10:00:00,59.7,49.5,29.81,SW,225,3.0,6.0,69,0.00,,,0.01,Wunderground v.1.15,2013-12-02 16:00:00,
2013-12-02 10:10:00,61.5,49.6,29.80,SW,227,3.0,3.0,65,0.00,,,0.01,Wunderground v.1.15,2013-12-02 16:10:00,
2013-12-02 10:20:00,62.9,50.1,29.79,WSW,239,2.0,2.0,63,0.00,,,0.01,Wunderground v.1.15,2013-12-02 16:20:00,
2013-12-02 10:30:00,64.0,48.5,29.79,WNW,285,4.0,12.0,57,0.00,,,0.01,Wunderground v.1.15,2013-12-02 16:30:00,
2013-12-02 10:40:00,64.9,48.3,29.80,WSW,241,3.0,3.0,55,0.00,,,0.01,Wunderground v.1.15,2013-12-02 16:40:00,
2013-12-02 10:50:00,65.7,48.1,29.80,WSW,250,2.0,7.0,53,0.00,,,0.01,Wunderground v.1.15,2013-12-02 16:50:00,
2013-12-02 11:00:00,66.6,47.9,29.78,WSW,248,3.0,3.0,51,0.00,,,0.01,Wunderground v.1.15,2013-12-02 17:00:00,
2013-12-02 11:10:00,67.6,46.6,29.78,WNW,283,3.0,3.0,47,0.00,,,0.01,Wunderground v.1.15,2013-12-02 17:10:00,
2013-12-02 11:20:00,68.6,44.6,29.78,West,279,3.0,3.0,42,0.00,,,0.01,Wunderground v.1.15,2013-12-02 17:20:00,
2013-12-02 11:30:00,69.5,44.8,29.77,West,279,3.0,6.0,41,0.00,,,0.01,Wunderground v.1.15,2013-12-02 17:30:00,
2013-12-02 11:40:00,70.2,45.4,29.76,WSW,249,3.0,5.0,41,0.00,,,0.01,Wunderground v.1.15,2013-12-02 17:40:00,
2013-12-02 11:50:00,70.8,43.2,29.75,WSW,248,4.0,5.0,37,0.00,,,0.01,Wunderground v.1.15,2013-12-02 17:50:00,
2013-12-02 12:00:00,71.7,40.3,29.74,West,267,5.0,11.0,32,0.00,,,0.01,Wunderground v.1.15,2013-12-02 18:00:00,
2013-12-02 12:10:00,72.3,40.0,29.73,SW,227,6.0,7.0,31,0.00,,,0.01,Wunderground v.1.15,2013-12-02 18:10:00,
2013-12-02 12:20:00,72.9,38.8,29.72,WSW,244,7.0,12.0,29,0.00,,,0.01,Wunderground v.1.15,2013-12-02 18:20:00,
2013-12-02 12:30:00,73.3,39.1,29.71,WNW,284,7.0,7.0,29,0.00,,,0.01,Wunderground v.1.15,2013-12-02 18:30:00,
2013-12-02 12:40:00,74.2,39.9,29.70,West,267,5.0,5.0,29,0.00,,,0.01,Wunderground v.1.15,2013-12-02 18:40:00,
2013-12-02 12:50:00,74.7,39.4,29.70,WSW,257,7.0,7.0,28,0.00,,,0.01,Wunderground v.1.15,2013-12-02 18:50:00,
2013-12-02 13:00:00,75.3,39.0,29.70,West,263,5.0,8.0,27,0.00,,,0.01,Wunderground v.1.15,2013-12-02 19:00:00,
2013-12-02 13:10:00,75.1,38.8,29.69,NW,306,6.0,6.0,27,0.00,,,0.01,Wunderground v.1.15,2013-12-02 19:10:00,
2013-12-02 13:20:00,75.6,39.2,29.69,WNW,297,6.0,6.0,27,0.00,,,0.01,Wunderground v.1.15,2013-12-02 19:20:00,
2013-12-02 13:30:00,75.8,39.4,29.68,WSW,257,5.0,5.0,27,0.00,,,0.01,Wunderground v.1.15,2013-12-02 19:30:00,
2013-12-02 13:40:00,76.0,39.6,29.67,WSW,251,6.0,6.0,27,0.00,,,0.01,Wunderground v.1.15,2013-12-02 19:40:00,
2013-12-02 13:50:00,76.1,40.6,29.67,West,270,5.0,5.0,28,0.00,,,0.01,Wunderground v.1.15,2013-12-02 19:50:00,
2013-12-02 14:00:00,76.2,39.8,29.67,WNW,295,7.0,7.0,27,0.00,,,0.01,Wunderground v.1.15,2013-12-02 20:00:00,
2013-12-02 14:10:00,76.0,40.5,29.66,South,174,7.0,7.0,28,0.00,,,0.01,Wunderground v.1.15,2013-12-02 20:10:00,
2013-12-02 14:20:00,75.6,41.1,29.66,WSW,256,9.0,9.0,29,0.00,,,0.01,Wunderground v.1.15,2013-12-02 20:20:00,
2013-12-02 14:30:00,76.0,41.4,29.65,West,270,6.0,9.0,29,0.00,,,0.01,Wunderground v.1.15,2013-12-02 20:30:00,
2013-12-02 14:40:00,76.2,41.6,29.65,WNW,296,7.0,7.0,29,0.00,,,0.01,Wunderground v.1.15,2013-12-02 20:40:00,
2013-12-02 14:50:00,77.1,40.5,29.65,WNW,288,4.0,7.0,27,0.00,,,0.01,Wunderground v.1.15,2013-12-02 20:50:00,
2013-12-02 15:00:00,77.2,40.6,29.65,WNW,297,6.0,6.0,27,0.00,,,0.01,Wunderground v.1.15,2013-12-02 21:00:00,
2013-12-02 15:10:00,77.1,40.5,29.64,WNW,288,7.0,15.0,27,0.00,,,0.01,Wunderground v.1.15,2013-12-02 21:10:00,
2013-12-02 15:20:00,76.7,40.2,29.64,NNW,331,8.0,12.0,27,0.00,,,0.01,Wunderground v.1.15,2013-12-02 21:20:00,
2013-12-02 15:30:00,76.5,41.0,29.65,West,278,7.0,7.0,28,0.00,,,0.01,Wunderground v.1.15,2013-12-02 21:30:00,
2013-12-02 15:40:00,76.6,41.0,29.64,West,273,4.0,14.0,28,0.00,,,0.01,Wunderground v.1.15,2013-12-02 21:40:00,
2013-12-02 15:50:00,76.1,41.5,29.63,WNW,290,4.0,4.0,29,0.00,,,0.01,Wunderground v.1.15,2013-12-02 21:50:00,
2013-12-02 16:00:00,75.9,41.3,29.63,WNW,298,2.0,13.0,29,0.00,,,0.01,Wunderground v.1.15,2013-12-02 22:00:00,
2013-12-02 16:10:00,75.5,40.1,29.63,WNW,285,6.0,6.0,28,0.00,,,0.01,Wunderground v.1.15,2013-12-02 22:10:00,
2013-12-02 16:20:00,75.3,40.8,29.63,West,277,3.0,3.0,29,0.00,,,0.01,Wunderground v.1.15,2013-12-02 22:20:00,
2013-12-02 16:30:00,75.0,40.6,29.64,West,279,1.0,1.0,29,0.00,,,0.01,Wunderground v.1.15,2013-12-02 22:30:00,
2013-12-02 16:40:00,74.6,39.3,29.64,WNW,292,3.0,3.0,28,0.00,,,0.01,Wunderground v.1.15,2013-12-02 22:40:00,
2013-12-02 16:50:00,74.1,38.9,29.64,WNW,292,4.0,5.0,28,0.00,,,0.01,Wunderground v.1.15,2013-12-02 22:50:00,
2013-12-02 17:00:00,73.7,39.5,29.65,West,263,1.0,1.0,29,0.00,,,0.01,Wunderground v.1.15,2013-12-02 23:00:00,
2013-12-02 17:10:00,73.0,38.9,29.65,West,275,1.0,1.0,29,0.00,,,0.01,Wunderground v.1.15,2013-12-02 23:10:00,
2013-12-02 17:20:00,72.1,38.9,29.65,NNW,341,0.0,5.0,30,0.00,,,0.01,Wunderground v.1.15,2013-12-02 23:20:00,
2013-12-02 17:30:00,71.1,39.7,29.65,NNW,341,0.0,5.0,32,0.00,,,0.01,Wunderground v.1.15,2013-12-02 23:30:00,
2013-12-02 17:40:00,69.2,40.4,29.66,NNW,341,0.0,5.0,35,0.00,,,0.01,Wunderground v.1.15,2013-12-02 23:40:00,
2013-12-02 17:50:00,66.8,39.0,29.66,NNW,341,0.0,5.0,36,0.00,,,0.01,Wunderground v.1.15,2013-12-02 23:50:00,
2013-12-02 18:00:00,64.7,39.2,29.66,NNW,341,0.0,5.0,39,0.00,,,0.01,Wunderground v.1.15,2013-12-03 00:00:00,
2013-12-02 18:10:00,63.4,38.6,29.67,NNW,341,0.0,5.0,40,0.00,,,0.01,Wunderground v.1.15,2013-12-03 00:10:00,
2013-12-02 18:20:00,62.6,38.6,29.67,NNW,341,0.0,5.0,41,0.00,,,0.01,Wunderground v.1.15,2013-12-03 00:20:00,
2013-12-02 18:30:00,61.7,38.4,29.67,NNW,341,0.0,5.0,42,0.00,,,0.01,Wunderground v.1.15,2013-12-03 00:30:00,
2013-12-02 18:40:00,61.1,38.4,29.67,NNW,341,0.0,5.0,43,0.00,,,0.01,Wunderground v.1.15,2013-12-03 00:40:00,
2013-12-02 18:50:00,60.5,38.5,29.67,NNW,341,0.0,5.0,44,0.00,,,0.01,Wunderground v.1.15,2013-12-03 00:50:00,
2013-12-02 19:00:00,60.2,38.2,29.66,NNW,341,0.0,5.0,44,0.00,,,0.01,Wunderground v.1.15,2013-12-03 01:00:00,
2013-12-02 19:10:00,59.4,39.1,29.67,NNW,341,0.0,5.0,47,0.00,,,0.01,Wunderground v.1.15,2013-12-03 01:10:00,
2013-12-02 19:20:00,58.7,39.6,29.67,NNW,341,0.0,5.0,49,0.00,,,0.01,Wunderground v.1.15,2013-12-03 01:20:00,
2013-12-02 19:30:00,58.1,40.6,29.67,NNW,341,0.0,5.0,52,0.00,,,0.01,Wunderground v.1.15,2013-12-03 01:30:00,
2013-12-02 19:40:00,57.5,39.0,29.67,NNW,341,0.0,5.0,50,0.00,,,0.01,Wunderground v.1.15,2013-12-03 01:40:00,
2013-12-02 19:50:00,58.2,41.6,29.66,NNW,341,0.0,5.0,54,0.00,,,0.01,Wunderground v.1.15,2013-12-03 01:50:00,
2013-12-02 20:00:00,56.9,41.4,29.66,NNW,341,0.0,5.0,56,0.00,,,0.01,Wunderground v.1.15,2013-12-03 02:00:00,
2013-12-02 20:10:00,55.3,40.3,29.66,NNW,341,0.0,5.0,57,0.00,,,0.01,Wunderground v.1.15,2013-12-03 02:10:00,
2013-12-02 20:20:00,54.3,42.8,29.67,NNW,341,0.0,5.0,65,0.00,,,0.01,Wunderground v.1.15,2013-12-03 02:20:00,
2013-12-02 20:30:00,52.9,41.4,29.67,NNW,341,0.0,5.0,65,0.00,,,0.01,Wunderground v.1.15,2013-12-03 02:30:00,
2013-12-02 20:40:00,51.9,39.7,29.66,NNW,341,0.0,5.0,63,0.00,,,0.01,Wunderground v.1.15,2013-12-03 02:40:00,
2013-12-02 20:50:00,51.6,40.2,29.66,NNW,341,0.0,5.0,65,0.00,,,0.01,Wunderground v.1.15,2013-12-03 02:50:00,
2013-12-02 21:00:00,51.0,40.4,29.66,NNW,341,0.0,5.0,67,0.00,,,0.01,Wunderground v.1.15,2013-12-03 03:00:00,
2013-12-02 21:10:00,50.1,40.3,29.67,NNW,341,0.0,5.0,69,0.00,,,0.01,Wunderground v.1.15,2013-12-03 03:10:00,
2013-12-02 21:20:00,49.5,40.5,29.67,NNW,341,0.0,5.0,71,0.00,,,0.01,Wunderground v.1.15,2013-12-03 03:20:00,
2013-12-02 21:30:00,49.0,40.0,29.68,NNW,341,0.0,5.0,71,0.00,,,0.01,Wunderground v.1.15,2013-12-03 03:30:00,
2013-12-02 21:40:00,48.2,40.3,29.67,NNW,341,0.0,5.0,74,0.00,,,0.01,Wunderground v.1.15,2013-12-03 03:40:00,
2013-12-02 21:50:00,47.6,40.4,29.67,NNW,341,0.0,5.0,76,0.00,,,0.01,Wunderground v.1.15,2013-12-03 03:50:00,
2013-12-02 22:00:00,47.0,40.2,29.67,NNW,341,0.0,5.0,77,0.00,,,0.01,Wunderground v.1.15,2013-12-03 04:00:00,
2013-12-02 22:10:00,46.4,40.6,29.67,NNW,341,0.0,5.0,80,0.00,,,0.01,Wunderground v.1.15,2013-12-03 04:10:00,
2013-12-02 22:20:00,45.8,39.7,29.67,NNW,341,0.0,5.0,79,0.00,,,0.01,Wunderground v.1.15,2013-12-03 04:20:00,
2013-12-02 22:30:00,45.3,40.1,29.67,NNW,341,0.0,5.0,82,0.00,,,0.01,Wunderground v.1.15,2013-12-03 04:30:00,
2013-12-02 22:40:00,45.1,39.6,29.66,NNW,341,0.0,5.0,81,0.00,,,0.01,Wunderground v.1.15,2013-12-03 04:40:00,
2013-12-02 22:50:00,45.6,39.5,29.66,NNW,341,0.0,5.0,79,0.00,,,0.01,Wunderground v.1.15,2013-12-03 04:50:00,
2013-12-02 23:00:00,46.4,39.9,29.66,NNW,341,0.0,5.0,78,0.00,,,0.01,Wunderground v.1.15,2013-12-03 05:00:00,
2013-12-02 23:10:00,45.8,39.7,29.66,NNW,341,0.0,5.0,79,0.00,,,0.01,Wunderground v.1.15,2013-12-03 05:10:00,
2013-12-02 23:20:00,45.1,39.6,29.67,NNW,341,0.0,5.0,81,0.00,,,0.01,Wunderground v.1.15,2013-12-03 05:20:00,
2013-12-02 23:30:00,45.5,40.0,29.67,NNW,341,0.0,5.0,81,0.00,,,0.01,Wunderground v.1.15,2013-12-03 05:30:00,
2013-12-02 23:40:00,45.7,39.9,29.66,NNW,341,0.0,5.0,80,0.00,,,0.01,Wunderground v.1.15,2013-12-03 05:40:00,
2013-12-02 23:50:00,45.2,39.7,29.65,NNW,341,0.0,5.0,81,0.00,,,0.01,Wunderground v.1.15,2013-12-03 05:50:00,